createdAt,value
2022-10-29T00:00:00.915Z,95676.75
2022-10-29T00:02:27.794Z,95679.13
2022-10-29T00:04:54.624Z,95680.13
2022-10-29T00:10:10.407Z,95679.34
2022-10-29T00:12:37.297Z,95677.34
2022-10-29T00:15:04.846Z,95680.72
2022-10-29T00:17:31.888Z,95673.47
2022-10-29T00:19:58.813Z,95671.81
2022-10-29T00:22:25.836Z,95672.81
2022-10-29T00:24:52.591Z,95676.75
2022-10-29T00:27:21.384Z,95668.50
2022-10-29T00:29:48.097Z,95672.47
2022-10-29T00:32:15.079Z,95672.22
2022-10-29T00:34:41.966Z,95665.34
2022-10-29T00:37:38.071Z,95671.50
2022-10-29T00:43:15.804Z,95663.16
2022-10-29T00:48:31.764Z,95664.84
2022-10-29T00:51:00.934Z,95673.03
2022-10-29T00:53:29.997Z,95683.63
2022-10-29T01:01:56.574Z,95681.72
2022-10-29T01:04:25.207Z,95682.84
2022-10-29T01:09:44.588Z,95684.56
2022-10-29T01:12:25.757Z,95681.03
2022-10-29T01:15:04.369Z,95684.03
2022-10-29T01:17:45.319Z,95683.06
2022-10-29T01:20:35.714Z,95684.38
2022-10-29T01:23:19.421Z,95680.41
2022-10-29T01:26:08.432Z,95679.50
2022-10-29T01:28:50.645Z,95685.88
2022-10-29T01:31:24.302Z,95682.59
2022-10-29T01:33:56.494Z,95674.47
2022-10-29T01:36:33.779Z,95665.25
2022-10-29T01:39:07.668Z,95660.56
2022-10-29T01:41:43.885Z,95662.81
2022-10-29T01:44:19.470Z,95656.16
2022-10-29T01:46:52.586Z,95659.69
2022-10-29T01:49:25.606Z,95656.59
2022-10-29T01:51:55.725Z,95657.72
2022-10-29T01:54:22.428Z,95655.09
2022-10-29T01:56:54.573Z,95658.03
2022-10-29T01:59:35.380Z,95661.19
2022-10-29T02:02:15.924Z,95661.75
2022-10-29T02:04:57.553Z,95654.91
2022-10-29T02:07:36.073Z,95645.28
2022-10-29T02:10:10.679Z,95655.75
2022-10-29T02:12:44.987Z,95652.00
2022-10-29T02:15:18.533Z,95654.66
2022-10-29T02:17:47.040Z,95652.00
2022-10-29T02:20:15.831Z,95648.00
2022-10-29T02:22:43.228Z,95644.78
2022-10-29T02:25:10.865Z,95646.28
2022-10-29T02:27:37.700Z,95645.44
2022-10-29T02:30:05.938Z,95648.00
2022-10-29T02:32:32.968Z,95647.63
2022-10-29T02:35:01.664Z,95639.88
2022-10-29T02:37:29.083Z,95640.59
2022-10-29T02:39:55.958Z,95634.72
2022-10-29T02:42:22.975Z,95630.78
2022-10-29T02:44:49.944Z,95621.88
2022-10-29T02:47:16.880Z,95616.97
2022-10-29T02:49:43.630Z,95614.13
2022-10-29T02:52:11.749Z,95613.19
2022-10-29T02:54:39.471Z,95620.38
2022-10-29T02:57:06.452Z,95624.16
2022-10-29T02:59:33.162Z,95635.59
2022-10-29T03:02:00.510Z,95635.41
2022-10-29T03:04:27.378Z,95632.38
2022-10-29T03:06:54.521Z,95631.38
2022-10-29T03:09:22.665Z,95623.22
2022-10-29T03:11:49.387Z,95619.28
2022-10-29T03:14:16.212Z,95616.94
2022-10-29T03:16:43.257Z,95623.84
2022-10-29T03:19:10.049Z,95621.19
2022-10-29T03:21:37.051Z,95626.25
2022-10-29T03:24:04.533Z,95626.25
2022-10-29T03:26:32.690Z,95631.63
2022-10-29T03:28:59.846Z,95627.34
2022-10-29T03:31:26.678Z,95623.66
2022-10-29T03:33:53.373Z,95624.16
2022-10-29T03:36:20.323Z,95628.34
2022-10-29T03:38:47.232Z,95636.00
2022-10-29T03:41:13.951Z,95636.22
2022-10-29T03:43:42.239Z,95629.88
2022-10-29T03:46:09.186Z,95624.84
2022-10-29T03:48:35.951Z,95629.44
2022-10-29T03:51:08.281Z,95646.56
2022-10-29T03:53:37.023Z,95656.59
2022-10-29T03:56:04.789Z,95646.56
2022-10-29T03:58:31.593Z,95640.53
2022-10-29T04:01:01.689Z,95634.19
2022-10-29T04:03:30.020Z,95632.09
2022-10-29T04:05:57.257Z,95623.91
2022-10-29T04:08:24.333Z,95628.41
2022-10-29T04:10:51.713Z,95630.50
2022-10-29T04:13:19.449Z,95640.53
2022-10-29T04:15:46.736Z,95645.34
2022-10-29T04:18:14.954Z,95646.47
2022-10-29T04:21:01.026Z,95651.00
2022-10-29T04:29:03.330Z,95647.13
2022-10-29T04:31:30.042Z,95644.41
2022-10-29T04:33:58.242Z,95639.88
2022-10-29T04:36:25.003Z,95641.66
2022-10-29T04:38:51.666Z,95644.78
2022-10-29T04:41:18.356Z,95642.41
2022-10-29T04:43:45.150Z,95644.00
2022-10-29T04:46:12.053Z,95653.28
2022-10-29T04:48:38.920Z,95650.16
2022-10-29T04:51:07.228Z,95645.72
2022-10-29T04:53:34.121Z,95643.88
2022-10-29T04:56:01.838Z,95640.75
2022-10-29T04:58:28.692Z,95637.03
2022-10-29T05:01:01.167Z,95647.13
2022-10-29T05:03:28.054Z,95643.44
2022-10-29T05:05:54.945Z,95643.19
2022-10-29T05:08:23.474Z,95648.25
2022-10-29T05:10:50.388Z,95648.50
2022-10-29T05:13:17.068Z,95644.25
2022-10-29T05:15:53.021Z,95646.09
2022-10-29T05:18:20.388Z,95637.09
2022-10-29T05:20:47.085Z,95637.81
2022-10-29T05:23:14.033Z,95636.16
2022-10-29T05:25:42.343Z,95630.75
2022-10-29T05:28:12.389Z,95636.72
2022-10-29T05:30:40.058Z,95636.41
2022-10-29T05:33:07.768Z,95634.03
2022-10-29T05:35:35.417Z,95635.03
2022-10-29T05:38:02.632Z,95640.59
2022-10-29T05:40:29.550Z,95650.72
2022-10-29T05:42:57.920Z,95642.25
2022-10-29T05:45:24.862Z,95649.50
2022-10-29T05:47:57.008Z,95651.16
2022-10-29T05:50:23.741Z,95647.19
2022-10-29T05:52:55.659Z,95643.50
2022-10-29T05:55:22.704Z,95643.50
2022-10-29T05:57:49.471Z,95649.13
2022-10-29T06:00:18.077Z,95638.59
2022-10-29T06:02:45.066Z,95636.47
2022-10-29T06:05:11.932Z,95638.88
2022-10-29T06:07:38.829Z,95642.66
2022-10-29T06:10:06.879Z,95640.81
2022-10-29T06:12:34.900Z,95649.31
2022-10-29T06:15:02.156Z,95652.25
2022-10-29T06:17:30.937Z,95654.66
2022-10-29T06:19:57.884Z,95652.25
2022-10-29T06:22:24.790Z,95661.28
2022-10-29T06:24:51.509Z,95671.63
2022-10-29T06:27:18.208Z,95672.72
2022-10-29T06:29:45.139Z,95664.28
2022-10-29T06:32:12.032Z,95660.38
2022-10-29T06:34:40.534Z,95665.66
2022-10-29T06:37:07.209Z,95665.41
2022-10-29T06:39:33.981Z,95664.38
2022-10-29T06:42:00.657Z,95666.75
2022-10-29T06:44:29.976Z,95670.47
2022-10-29T06:46:56.716Z,95669.97
2022-10-29T06:49:23.927Z,95663.94
2022-10-29T06:51:52.408Z,95668.78
2022-10-29T06:54:19.193Z,95662.44
2022-10-29T06:56:46.108Z,95664.84
2022-10-29T06:59:12.918Z,95658.00
2022-10-29T07:01:39.934Z,95659.03
2022-10-29T07:04:06.771Z,95656.16
2022-10-29T07:06:36.827Z,95661.75
2022-10-29T07:09:05.314Z,95661.00
2022-10-29T07:11:32.134Z,95669.25
2022-10-29T07:13:59.088Z,95678.31
2022-10-29T07:16:26.050Z,95674.09
2022-10-29T07:18:53.887Z,95673.06
2022-10-29T07:21:20.740Z,95677.13
2022-10-29T07:23:47.611Z,95680.22
2022-10-29T07:26:15.952Z,95675.31
2022-10-29T07:28:42.831Z,95667.47
2022-10-29T07:31:16.396Z,95682.53
2022-10-29T07:33:43.141Z,95686.41
2022-10-29T07:45:27.898Z,95682.59
2022-10-29T07:48:03.066Z,95686.91
2022-10-29T07:50:31.403Z,95689.03
2022-10-29T07:52:59.809Z,95681.53
2022-10-29T07:55:26.751Z,95687.13
2022-10-29T07:57:58.876Z,95680.13
2022-10-29T08:00:29.242Z,95680.75
2022-10-29T08:02:56.903Z,95677.16
2022-10-29T08:05:25.566Z,95677.00
2022-10-29T08:10:40.871Z,95666.81
2022-10-29T08:13:07.722Z,95665.69
2022-10-29T08:15:36.073Z,95664.03
2022-10-29T08:18:09.303Z,95661.38
2022-10-29T08:23:34.006Z,95651.50
2022-10-29T08:26:00.787Z,95658.59
2022-10-29T08:28:29.306Z,95664.34
2022-10-29T08:31:10.336Z,95653.72
2022-10-29T08:33:37.374Z,95661.91
2022-10-29T08:36:05.090Z,95647.94
2022-10-29T08:38:32.764Z,95647.78
2022-10-29T08:41:28.434Z,95654.84
2022-10-29T08:44:32.666Z,95656.22
2022-10-29T08:47:20.577Z,95647.09
2022-10-29T08:49:56.489Z,95640.50
2022-10-29T08:52:26.790Z,95640.25
2022-10-29T08:55:04.055Z,95634.34
2022-10-29T08:57:37.525Z,95634.78
2022-10-29T09:02:48.020Z,95632.91
2022-10-29T09:05:17.694Z,95624.91
2022-10-29T09:08:02.174Z,95629.41
2022-10-29T09:10:38.811Z,95631.41
2022-10-29T09:13:28.991Z,95635.44
2022-10-29T09:16:08.952Z,95627.94
2022-10-29T09:18:51.905Z,95639.25
2022-10-29T09:21:32.091Z,95637.06
2022-10-29T09:24:05.343Z,95624.56
2022-10-29T09:26:44.791Z,95627.94
2022-10-29T09:29:27.997Z,95621.91
2022-10-29T09:32:00.102Z,95621.09
2022-10-29T09:34:36.856Z,95621.25
2022-10-29T09:37:18.330Z,95622.31
2022-10-29T09:39:48.283Z,95615.91
2022-10-29T09:42:19.217Z,95608.72
2022-10-29T09:44:51.981Z,95612.78
2022-10-29T09:47:34.699Z,95612.72
2022-10-29T09:50:17.719Z,95609.97
2022-10-29T09:52:55.405Z,95603.72
2022-10-29T09:55:26.079Z,95609.00
2022-10-29T09:57:55.031Z,95603.88
2022-10-29T10:03:14.008Z,95605.25
2022-10-29T10:06:01.740Z,95600.59
2022-10-29T10:08:28.911Z,95599.59
2022-10-29T10:10:59.769Z,95607.88
2022-10-29T10:13:31.554Z,95599.88
2022-10-29T10:16:00.863Z,95598.06
2022-10-29T10:18:38.210Z,95594.72
2022-10-29T10:21:11.169Z,95589.44
2022-10-29T10:23:44.383Z,95584.59
2022-10-29T10:26:31.587Z,95579.56
2022-10-29T10:32:10.911Z,95578.00
2022-10-29T10:34:39.444Z,95572.81
2022-10-29T10:37:13.603Z,95572.38
2022-10-29T10:39:43.776Z,95574.44
2022-10-29T10:42:21.104Z,95576.66
2022-10-29T10:44:52.419Z,95567.53
2022-10-29T10:47:22.955Z,95560.38
2022-10-29T10:49:50.058Z,95560.03
2022-10-29T10:52:25.451Z,95555.59
2022-10-29T10:54:57.902Z,95547.34
2022-10-29T10:57:27.417Z,95547.81
2022-10-29T11:00:02.783Z,95538.59
2022-10-29T11:02:42.904Z,95535.66
2022-10-29T11:05:17.942Z,95531.22
2022-10-29T11:07:51.339Z,95529.28
2022-10-29T11:10:25.249Z,95526.22
2022-10-29T11:12:55.513Z,95527.91
2022-10-29T11:15:31.386Z,95516.91
2022-10-29T11:18:04.660Z,95517.69
2022-10-29T11:20:35.973Z,95514.88
2022-10-29T11:23:29.516Z,95508.56
2022-10-29T11:26:03.613Z,95503.13
2022-10-29T11:28:38.973Z,95506.81
2022-10-29T11:31:15.196Z,95497.19
2022-10-29T11:33:50.775Z,95492.91
2022-10-29T11:36:20.967Z,95482.41
2022-10-29T11:38:54.713Z,95490.19
2022-10-29T11:41:28.019Z,95482.94
2022-10-29T11:43:56.722Z,95483.22
2022-10-29T11:46:32.657Z,95480.53
2022-10-29T11:49:11.318Z,95474.41
2022-10-29T11:51:52.116Z,95471.75
2022-10-29T11:54:37.317Z,95468.97
2022-10-29T11:57:11.787Z,95475.59
2022-10-29T11:59:50.249Z,95463.91
2022-10-29T12:02:39.954Z,95457.66
2022-10-29T12:05:15.647Z,95463.03
2022-10-29T12:07:56.511Z,95460.59
2022-10-29T12:10:38.408Z,95447.06
2022-10-29T12:13:16.470Z,95450.09
2022-10-29T12:15:59.604Z,95445.94
2022-10-29T12:18:32.349Z,95441.28
2022-10-29T12:21:07.651Z,95442.44
2022-10-29T12:23:48.844Z,95435.06
2022-10-29T12:26:26.795Z,95427.34
2022-10-29T12:29:00.496Z,95432.84
2022-10-29T12:31:33.062Z,95429.69
2022-10-29T12:34:05.733Z,95427.75
2022-10-29T12:36:43.558Z,95423.97
2022-10-29T12:39:27.585Z,95427.47
2022-10-29T12:42:01.616Z,95427.56
2022-10-29T12:44:35.074Z,95419.03
2022-10-29T12:47:07.577Z,95416.31
2022-10-29T12:49:50.116Z,95410.53
2022-10-29T12:52:24.718Z,95415.97
2022-10-29T12:54:54.180Z,95401.88
2022-10-29T12:57:30.511Z,95412.25
2022-10-29T12:59:58.726Z,95405.88
2022-10-29T13:02:30.270Z,95406.03
2022-10-29T13:05:15.208Z,95403.97
2022-10-29T13:08:17.837Z,95402.25
2022-10-29T13:11:02.184Z,95400.53
2022-10-29T13:13:47.848Z,95397.56
2022-10-29T13:16:17.585Z,95400.81
2022-10-29T13:18:51.797Z,95402.91
2022-10-29T13:21:57.283Z,95402.31
2022-10-29T13:24:24.663Z,95402.84
2022-10-29T13:26:57.488Z,95399.69
2022-10-29T13:29:49.211Z,95394.94
2022-10-29T13:32:34.620Z,95389.78
2022-10-29T13:35:03.576Z,95395.81
2022-10-29T13:37:49.710Z,95394.59
2022-10-29T13:41:02.622Z,95393.63
2022-10-29T13:43:31.860Z,95395.19
2022-10-29T13:46:31.678Z,95386.75
2022-10-29T13:49:02.989Z,95391.91
2022-10-29T13:51:41.569Z,95385.50
2022-10-29T13:54:17.192Z,95390.19
2022-10-29T13:56:49.146Z,95391.00
2022-10-29T13:59:25.158Z,95386.44
2022-10-29T14:02:01.467Z,95386.03
2022-10-29T14:04:34.714Z,95389.22
2022-10-29T14:07:06.852Z,95384.34
2022-10-29T14:09:40.906Z,95378.41
2022-10-29T14:12:11.642Z,95388.31
2022-10-29T14:14:47.815Z,95381.81
2022-10-29T14:17:16.471Z,95388.38
2022-10-29T14:19:46.774Z,95382.91
2022-10-29T14:22:38.152Z,95376.75
2022-10-29T14:25:28.069Z,95375.50
2022-10-29T14:28:23.570Z,95380.09
2022-10-29T14:31:01.388Z,95386.72
2022-10-29T14:33:30.995Z,95381.75
2022-10-29T14:36:07.797Z,95382.19
2022-10-29T14:38:41.870Z,95381.81
2022-10-29T14:41:09.607Z,95383.03
2022-10-29T14:43:37.436Z,95380.53
2022-10-29T14:46:17.296Z,95381.88
2022-10-29T14:49:00.142Z,95384.63
2022-10-29T14:51:31.031Z,95389.00
2022-10-29T14:54:02.377Z,95380.97
2022-10-29T14:56:33.558Z,95380.00
2022-10-29T14:59:04.477Z,95384.22
2022-10-29T15:01:31.595Z,95385.75
2022-10-29T15:04:02.173Z,95384.22
2022-10-29T15:06:40.389Z,95381.59
2022-10-29T15:09:20.095Z,95381.19
2022-10-29T15:12:00.055Z,95377.94
2022-10-29T15:14:36.816Z,95384.97
2022-10-29T15:17:11.061Z,95380.13
2022-10-29T15:19:43.196Z,95383.06
2022-10-29T15:22:19.024Z,95383.75
2022-10-29T15:24:48.893Z,95389.47
2022-10-29T15:27:16.162Z,95383.16
2022-10-29T15:29:46.726Z,95384.91
2022-10-29T15:32:16.511Z,95383.97
2022-10-29T15:34:48.597Z,95392.72
2022-10-29T15:37:23.928Z,95381.50
2022-10-29T15:40:03.459Z,95387.50
2022-10-29T15:42:34.847Z,95391.75
2022-10-29T15:45:19.135Z,95399.78
2022-10-29T15:47:48.460Z,95393.13
2022-10-29T15:50:17.605Z,95392.00
2022-10-29T15:52:48.779Z,95392.91
2022-10-29T15:55:25.093Z,95394.56
2022-10-29T15:57:54.808Z,95397.66
2022-10-29T16:00:23.642Z,95403.28
2022-10-29T16:02:51.225Z,95400.69
2022-10-29T16:05:18.786Z,95407.91
2022-10-29T16:07:48.298Z,95403.56
2022-10-29T16:10:18.159Z,95408.09
2022-10-29T16:12:45.646Z,95408.81
2022-10-29T16:15:14.300Z,95409.34
2022-10-29T16:17:41.424Z,95402.16
2022-10-29T16:20:12.730Z,95406.47
2022-10-29T16:22:39.604Z,95401.34
2022-10-29T16:25:20.864Z,95408.22
2022-10-29T16:27:48.076Z,95401.00
2022-10-29T16:30:15.122Z,95405.97
2022-10-29T16:32:43.353Z,95405.34
2022-10-29T16:35:15.985Z,95406.66
2022-10-29T16:37:43.091Z,95404.66
2022-10-29T16:40:12.609Z,95406.66
2022-10-29T16:42:39.772Z,95403.38
2022-10-29T16:45:10.759Z,95407.84
2022-10-29T16:47:37.467Z,95402.47
2022-10-29T16:50:04.892Z,95403.56
2022-10-29T16:52:32.842Z,95407.25
2022-10-29T16:54:59.846Z,95409.31
2022-10-29T16:57:29.472Z,95407.59
2022-10-29T16:59:56.338Z,95403.41
2022-10-29T17:02:23.146Z,95406.69
2022-10-29T17:04:49.865Z,95409.06
2022-10-29T17:07:17.427Z,95405.88
2022-10-29T17:09:44.432Z,95416.59
2022-10-29T17:12:11.393Z,95409.63
2022-10-29T17:14:39.645Z,95410.53
2022-10-29T17:17:06.707Z,95412.97
2022-10-29T17:19:33.419Z,95415.72
2022-10-29T17:22:00.174Z,95418.34
2022-10-29T17:24:27.244Z,95423.63
2022-10-29T17:26:54.301Z,95425.38
2022-10-29T17:29:21.076Z,95421.78
2022-10-29T17:31:49.594Z,95425.09
2022-10-29T17:34:16.286Z,95423.06
2022-10-29T17:36:44.593Z,95423.41
2022-10-29T17:39:11.545Z,95428.59
2022-10-29T17:41:38.321Z,95427.34
2022-10-29T17:44:05.219Z,95430.88
2022-10-29T17:46:31.995Z,95434.91
2022-10-29T17:49:00.473Z,95429.56
2022-10-29T17:51:27.769Z,95433.31
2022-10-29T17:53:54.587Z,95436.25
2022-10-29T17:56:21.337Z,95436.56
2022-10-29T17:58:48.200Z,95433.66
2022-10-29T18:01:15.437Z,95434.22
2022-10-29T18:21:55.174Z,95438.84
